Wetterdaten: Montag, 05.09.2011
Datum Zeit Temp. A. Feuchte A. Luftdruck Regen Wind Richtung Richtung Sonnenschein UV Solar Windben
05.09.2011 00:00 18,9 C 94 % 1008,8 hPa 0,0 mm 0,0 km/h (0 Bft) N 0 0 min 0 UV-I 0 W/m 0,0 km/h (0 Bft)
05.09.2011 00:10 18,9 C 94 % 1008,7 hPa 0,0 mm 0,0 km/h (0 Bft) N 0 0 min 0 UV-I 0 W/m 0,0 km/h (0 Bft)
05.09.2011 00:20 18,8 C 94 % 1008,6 hPa 0,0 mm 0,0 km/h (0 Bft) N 0 0 min 0 UV-I 0 W/m 0,0 km/h (0 Bft)
05.09.2011 00:30 18,8 C 94 % 1008,5 hPa 0,0 mm 0,0 km/h (0 Bft) N 0 0 min 0 UV-I 0 W/m 0,0 km/h (0 Bft)
05.09.2011 00:40 18,8 C 94 % 1008,6 hPa 0,0 mm 0,0 km/h (0 Bft) N 0 0 min 0 UV-I 0 W/m 0,0 km/h (0 Bft)
05.09.2011 00:50 18,8 C 94 % 1008,5 hPa 0,0 mm 0,0 km/h (0 Bft) N 0 0 min 0 UV-I 0 W/m 0,0 km/h (0 Bft)
05.09.2011 01:00 18,8 C 94 % 1008,6 hPa 0,0 mm 0,0 km/h (0 Bft) N 0 0 min 0 UV-I 0 W/m 0,0 km/h (0 Bft)
05.09.2011 01:10 18,7 C 94 % 1008,4 hPa 0,0 mm 0,0 km/h (0 Bft) W 270 0 min 0 UV-I 0 W/m 1,6 km/h (1 Bft)
05.09.2011 01:20 18,6 C 94 % 1008,5 hPa 0,0 mm 0,0 km/h (0 Bft) N 0 0 min 0 UV-I 0 W/m 0,0 km/h (0 Bft)
05.09.2011 01:30 18,4 C 94 % 1008,5 hPa 0,0 mm 0,0 km/h (0 Bft) N 0 0 min 0 UV-I 0 W/m 0,0 km/h (0 Bft)
05.09.2011 01:40 18,3 C 94 % 1008,4 hPa 0,0 mm 0,0 km/h (0 Bft) N 0 0 min 0 UV-I 0 W/m 0,0 km/h (0 Bft)
05.09.2011 01:50 18,1 C 94 % 1008,4 hPa 0,0 mm 0,0 km/h (0 Bft) N 0 0 min 0 UV-I 0 W/m 0,0 km/h (0 Bft)
05.09.2011 02:00 17,9 C 94 % 1008,5 hPa 0,0 mm 0,0 km/h (0 Bft) N 0 0 min 0 UV-I 0 W/m 0,0 km/h (0 Bft)
05.09.2011 02:10 17,8 C 94 % 1008,5 hPa 0,0 mm 0,0 km/h (0 Bft) N 0 0 min 0 UV-I 0 W/m 0,0 km/h (0 Bft)
05.09.2011 02:20 17,7 C 94 % 1008,4 hPa 0,0 mm 0,0 km/h (0 Bft) N 0 0 min 0 UV-I 0 W/m 0,0 km/h (0 Bft)
05.09.2011 02:30 17,6 C 94 % 1008,4 hPa 0,0 mm 0,0 km/h (0 Bft) N 0 0 min 0 UV-I 0 W/m 0,0 km/h (0 Bft)
05.09.2011 02:40 17,5 C 94 % 1008,4 hPa 0,0 mm 0,0 km/h (0 Bft) N 0 0 min 0 UV-I 0 W/m 0,0 km/h (0 Bft)
05.09.2011 02:50 17,5 C 95 % 1008,3 hPa 0,0 mm 0,0 km/h (0 Bft) N 0 0 min 0 UV-I 0 W/m 0,0 km/h (0 Bft)
05.09.2011 03:00 17,5 C 94 % 1008,3 hPa 0,0 mm 0,0 km/h (0 Bft) N 0 0 min 0 UV-I 0 W/m 0,0 km/h (0 Bft)
05.09.2011 03:10 17,3 C 94 % 1008,5 hPa 0,0 mm 0,0 km/h (0 Bft) N 0 0 min 0 UV-I 0 W/m 0,0 km/h (0 Bft)
05.09.2011 03:20 17,2 C 95 % 1008,5 hPa 0,0 mm 0,0 km/h (0 Bft) N 0 0 min 0 UV-I 0 W/m 0,0 km/h (0 Bft)
05.09.2011 03:30 17,2 C 95 % 1008,5 hPa 0,0 mm 0,0 km/h (0 Bft) N 0 0 min 0 UV-I 0 W/m 0,0 km/h (0 Bft)
05.09.2011 03:40 17,2 C 95 % 1008,5 hPa 0,0 mm 0,0 km/h (0 Bft) N 0 0 min 0 UV-I 0 W/m 0,0 km/h (0 Bft)
05.09.2011 03:50 17,2 C 95 % 1008,5 hPa 0,0 mm 0,0 km/h (0 Bft) N 0 0 min 0 UV-I 0 W/m 0,0 km/h (0 Bft)
05.09.2011 04:00 17,2 C 95 % 1008,5 hPa 0,0 mm 0,0 km/h (0 Bft) N 0 0 min 0 UV-I 0 W/m 0,0 km/h (0 Bft)
05.09.2011 04:10 17,0 C 95 % 1008,5 hPa 0,0 mm 0,0 km/h (0 Bft) N 0 0 min 0 UV-I 0 W/m 0,0 km/h (0 Bft)
05.09.2011 04:20 16,9 C 95 % 1008,6 hPa 0,0 mm 0,0 km/h (0 Bft) N 0 0 min 0 UV-I 0 W/m 0,0 km/h (0 Bft)
05.09.2011 04:30 16,9 C 95 % 1008,5 hPa 0,0 mm 0,0 km/h (0 Bft) N 0 0 min 0 UV-I 0 W/m 0,0 km/h (0 Bft)
05.09.2011 04:40 16,8 C 95 % 1008,6 hPa 0,0 mm 0,0 km/h (0 Bft) N 0 0 min 0 UV-I 0 W/m 0,0 km/h (0 Bft)
05.09.2011 04:50 16,8 C 95 % 1008,5 hPa 0,0 mm 0,0 km/h (0 Bft) N 0 0 min 0 UV-I 0 W/m 0,0 km/h (0 Bft)
05.09.2011 05:00 16,8 C 95 % 1008,4 hPa 0,0 mm 0,0 km/h (0 Bft) N 0 0 min 0 UV-I 0 W/m 0,0 km/h (0 Bft)
05.09.2011 05:10 16,8 C 95 % 1008,5 hPa 0,0 mm 0,0 km/h (0 Bft) W 270 0 min 0 UV-I 0 W/m 1,6 km/h (1 Bft)
05.09.2011 05:20 16,8 C 95 % 1008,6 hPa 0,0 mm 0,0 km/h (0 Bft) N 0 0 min 0 UV-I 0 W/m 0,0 km/h (0 Bft)
05.09.2011 05:30 16,8 C 95 % 1008,9 hPa 0,0 mm 0,0 km/h (0 Bft) W 270 0 min 0 UV-I 0 W/m 1,6 km/h (1 Bft)
05.09.2011 05:40 16,8 C 95 % 1008,8 hPa 0,0 mm 0,0 km/h (0 Bft) W 270 0 min 0 UV-I 0 W/m 3,2 km/h (1 Bft)
05.09.2011 05:50 16,9 C 95 % 1008,9 hPa 0,0 mm 0,0 km/h (0 Bft) W 270 0 min 0 UV-I 0 W/m 6,4 km/h (2 Bft)
05.09.2011 06:00 16,9 C 95 % 1009,1 hPa 0,0 mm 1,6 km/h (1 Bft) W 270 0 min 0 UV-I 0 W/m 8,0 km/h (2 Bft)
05.09.2011 06:10 16,9 C 95 % 1009,1 hPa 0,0 mm 1,6 km/h (1 Bft) W 270 0 min 0 UV-I 0 W/m 8,0 km/h (2 Bft)
05.09.2011 06:20 16,9 C 95 % 1009,1 hPa 0,0 mm 1,6 km/h (1 Bft) W 270 0 min 0 UV-I 0 W/m 8,0 km/h (2 Bft)
05.09.2011 06:30 17,0 C 95 % 1009,1 hPa 0,0 mm 3,2 km/h (1 Bft) W 270 0 min 0 UV-I 0 W/m 9,7 km/h (2 Bft)
05.09.2011 06:40 16,9 C 95 % 1009,2 hPa 0,0 mm 3,2 km/h (1 Bft) W 270 0 min 0 UV-I 0 W/m 14,5 km/h (3 Bft)
05.09.2011 06:50 16,9 C 95 % 1009,4 hPa 0,0 mm 4,8 km/h (1 Bft) W 270 0 min 0 UV-I 0 W/m 14,5 km/h (3 Bft)
05.09.2011 07:00 16,8 C 94 % 1009,6 hPa 0,0 mm 4,8 km/h (1 Bft) W 270 0 min 0 UV-I 0 W/m 17,7 km/h (3 Bft)
05.09.2011 07:10 16,8 C 94 % 1009,8 hPa 0,0 mm 6,4 km/h (2 Bft) W 270 0 min 0 UV-I 0 W/m 20,9 km/h (4 Bft)
05.09.2011 07:20 16,7 C 94 % 1009,8 hPa 0,0 mm 3,2 km/h (1 Bft) W 270 0 min 0 UV-I 9 W/m 14,5 km/h (3 Bft)
05.09.2011 07:30 16,6 C 92 % 1010,2 hPa 0,0 mm 9,7 km/h (2 Bft) W 270 0 min 0 UV-I 16 W/m 27,4 km/h (4 Bft)
05.09.2011 07:40 15,0 C 90 % 1010,5 hPa 0,0 mm 11,3 km/h (2 Bft) W 270 0 min 0 UV-I 32 W/m 27,4 km/h (4 Bft)
05.09.2011 07:50 14,3 C 86 % 1010,7 hPa 0,0 mm 6,4 km/h (2 Bft) W 270 0 min 0 UV-I 33 W/m 20,9 km/h (4 Bft)
05.09.2011 08:00 14,5 C 81 % 1011,0 hPa 0,0 mm 6,9 km/h (2 Bft) NW 306 0 min 0 UV-I 22 W/m 16,1 km/h (3 Bft)
05.09.2011 08:10 14,6 C 79 % 1011,1 hPa 0,0 mm 8,0 km/h (2 Bft) W-SW 247 0 min 0 UV-I 46 W/m 27,4 km/h (4 Bft)
05.09.2011 08:20 14,6 C 79 % 1011,2 hPa 0,0 mm 8,0 km/h (2 Bft) W-SW 247 0 min 0 UV-I 60 W/m 22,5 km/h (4 Bft)
05.09.2011 08:30 14,6 C 79 % 1011,3 hPa 0,0 mm 9,7 km/h (2 Bft) W 270 0 min 0 UV-I 60 W/m 29,0 km/h (5 Bft)
05.09.2011 08:40 14,4 C 80 % 1011,5 hPa 0,0 mm 4,8 km/h (1 Bft) W 270 0 min 0 UV-I 54 W/m 20,9 km/h (4 Bft)
05.09.2011 08:50 14,4 C 81 % 1011,5 hPa 0,0 mm 6,4 km/h (2 Bft) W 270 0 min 0 UV-I 63 W/m 19,3 km/h (3 Bft)
05.09.2011 09:00 14,4 C 81 % 1011,5 hPa 0,0 mm 6,4 km/h (2 Bft) W 270 0 min 1 UV-I 91 W/m 19,3 km/h (3 Bft)
05.09.2011 09:10 14,5 C 81 % 1011,6 hPa 0,0 mm 6,4 km/h (2 Bft) W 270 0 min 1 UV-I 113 W/m 20,9 km/h (4 Bft)
05.09.2011 09:20 14,7 C 81 % 1011,5 hPa 0,0 mm 3,2 km/h (1 Bft) W 270 0 min 1 UV-I 207 W/m 14,5 km/h (3 Bft)
05.09.2011 09:30 15,0 C 80 % 1011,7 hPa 0,0 mm 3,2 km/h (1 Bft) W-SW 247 10 min 1 UV-I 244 W/m 11,3 km/h (2 Bft)
05.09.2011 09:40 15,1 C 79 % 1011,6 hPa 0,0 mm 3,2 km/h (1 Bft) W 270 10 min 2 UV-I 357 W/m 17,7 km/h (3 Bft)
05.09.2011 09:50 15,5 C 76 % 1011,7 hPa 0,0 mm 6,4 km/h (2 Bft) W-SW 247 10 min 2 UV-I 450 W/m 17,7 km/h (3 Bft)
05.09.2011 10:00 15,8 C 73 % 1011,6 hPa 0,0 mm 8,0 km/h (2 Bft) W-SW 247 10 min 2 UV-I 450 W/m 20,9 km/h (4 Bft)
05.09.2011 10:10 16,1 C 72 % 1011,7 hPa 0,0 mm 6,4 km/h (2 Bft) W-SW 247 10 min 3 UV-I 599 W/m 17,7 km/h (3 Bft)
05.09.2011 10:20 16,6 C 70 % 1011,9 hPa 0,0 mm 4,8 km/h (1 Bft) W 270 10 min 3 UV-I 647 W/m 17,7 km/h (3 Bft)
05.09.2011 10:30 16,9 C 68 % 1011,8 hPa 0,0 mm 6,4 km/h (2 Bft) SW 225 10 min 3 UV-I 640 W/m 17,7 km/h (3 Bft)
05.09.2011 10:40 17,1 C 66 % 1011,6 hPa 0,0 mm 4,8 km/h (1 Bft) W 270 10 min 3 UV-I 585 W/m 20,9 km/h (4 Bft)
05.09.2011 10:50 17,2 C 67 % 1011,7 hPa 0,0 mm 6,4 km/h (2 Bft) W-SW 247 10 min 3 UV-I 598 W/m 22,5 km/h (4 Bft)
05.09.2011 11:00 17,6 C 66 % 1011,8 hPa 0,0 mm 4,8 km/h (1 Bft) S-SW 202 10 min 4 UV-I 519 W/m 14,5 km/h (3 Bft)
05.09.2011 11:10 17,8 C 64 % 1011,8 hPa 0,0 mm 3,2 km/h (1 Bft) SW 225 10 min 4 UV-I 608 W/m 14,5 km/h (3 Bft)
05.09.2011 11:20 18,1 C 63 % 1011,9 hPa 0,0 mm 6,4 km/h (2 Bft) W 270 10 min 4 UV-I 619 W/m 17,7 km/h (3 Bft)
05.09.2011 11:30 18,2 C 62 % 1012,0 hPa 0,0 mm 6,4 km/h (2 Bft) W 270 10 min 4 UV-I 606 W/m 17,7 km/h (3 Bft)
05.09.2011 11:40 18,1 C 64 % 1012,0 hPa 0,0 mm 6,4 km/h (2 Bft) W-SW 247 10 min 4 UV-I 534 W/m 19,3 km/h (3 Bft)
05.09.2011 11:50 18,3 C 64 % 1012,1 hPa 0,0 mm 8,0 km/h (2 Bft) W 270 10 min 5 UV-I 701 W/m 22,5 km/h (4 Bft)
05.09.2011 12:00 18,9 C 64 % 1012,1 hPa 0,0 mm 6,4 km/h (2 Bft) W 270 10 min 5 UV-I 816 W/m 22,5 km/h (4 Bft)
05.09.2011 12:10 19,8 C 59 % 1012,1 hPa 0,0 mm 4,8 km/h (1 Bft) W 270 10 min 5 UV-I 854 W/m 17,7 km/h (3 Bft)
05.09.2011 12:20 19,9 C 59 % 1012,1 hPa 0,0 mm 6,4 km/h (2 Bft) W 270 10 min 5 UV-I 889 W/m 17,7 km/h (3 Bft)
05.09.2011 12:30 20,0 C 56 % 1012,1 hPa 0,0 mm 8,0 km/h (2 Bft) S-SW 202 10 min 6 UV-I 861 W/m 22,5 km/h (4 Bft)
05.09.2011 12:40 20,1 C 55 % 1012,1 hPa 0,0 mm 9,7 km/h (2 Bft) W-SW 247 10 min 6 UV-I 865 W/m 27,4 km/h (4 Bft)
05.09.2011 12:50 19,9 C 54 % 1012,2 hPa 0,0 mm 11,3 km/h (2 Bft) W-SW 247 10 min 6 UV-I 953 W/m 29,0 km/h (5 Bft)
05.09.2011 13:00 20,3 C 54 % 1012,3 hPa 0,0 mm 11,3 km/h (2 Bft) W-SW 247 10 min 6 UV-I 947 W/m 25,7 km/h (4 Bft)
05.09.2011 13:10 20,1 C 55 % 1012,3 hPa 0,0 mm 9,7 km/h (2 Bft) W 270 10 min 6 UV-I 796 W/m 27,4 km/h (4 Bft)
05.09.2011 13:20 19,9 C 57 % 1012,3 hPa 0,0 mm 9,7 km/h (2 Bft) W 270 10 min 5 UV-I 817 W/m 27,4 km/h (4 Bft)
05.09.2011 13:30 19,3 C 58 % 1012,7 hPa 0,0 mm 8,0 km/h (2 Bft) W-SW 247 0 min 3 UV-I 267 W/m 19,3 km/h (3 Bft)
05.09.2011 13:40 19,0 C 60 % 1012,7 hPa 0,0 mm 8,0 km/h (2 Bft) W-SW 247 0 min 3 UV-I 294 W/m 24,1 km/h (4 Bft)
05.09.2011 13:50 18,8 C 61 % 1012,8 hPa 0,0 mm 9,7 km/h (2 Bft) W 270 0 min 2 UV-I 236 W/m 24,1 km/h (4 Bft)
05.09.2011 14:00 18,7 C 63 % 1012,9 hPa 0,0 mm 6,4 km/h (2 Bft) W-SW 247 0 min 2 UV-I 248 W/m 19,3 km/h (3 Bft)
05.09.2011 14:10 18,8 C 62 % 1013,0 hPa 0,0 mm 8,0 km/h (2 Bft) W-SW 247 0 min 2 UV-I 257 W/m 20,9 km/h (4 Bft)
05.09.2011 14:20 18,8 C 63 % 1013,1 hPa 0,0 mm 9,7 km/h (2 Bft) W-SW 247 0 min 3 UV-I 339 W/m 22,5 km/h (4 Bft)
05.09.2011 14:30 18,9 C 62 % 1013,1 hPa 0,0 mm 9,7 km/h (2 Bft) W 270 0 min 4 UV-I 302 W/m 22,5 km/h (4 Bft)
05.09.2011 14:40 18,7 C 64 % 1013,3 hPa 0,0 mm 11,3 km/h (2 Bft) W 270 0 min 3 UV-I 265 W/m 22,5 km/h (4 Bft)
05.09.2011 14:50 18,8 C 63 % 1013,1 hPa 0,0 mm 6,4 km/h (2 Bft) W 270 10 min 5 UV-I 635 W/m 20,9 km/h (4 Bft)
05.09.2011 15:00 19,3 C 65 % 1013,1 hPa 0,0 mm 8,0 km/h (2 Bft) W 270 10 min 5 UV-I 809 W/m 19,3 km/h (3 Bft)
05.09.2011 15:10 19,7 C 61 % 1013,2 hPa 0,0 mm 8,0 km/h (2 Bft) W 270 10 min 4 UV-I 403 W/m 27,4 km/h (4 Bft)
05.09.2011 15:20 19,4 C 64 % 1013,2 hPa 0,0 mm 6,4 km/h (2 Bft) W 270 10 min 4 UV-I 893 W/m 22,5 km/h (4 Bft)
05.09.2011 15:30 19,9 C 61 % 1013,3 hPa 0,0 mm 9,7 km/h (2 Bft) W-SW 247 10 min 4 UV-I 816 W/m 27,4 km/h (4 Bft)
05.09.2011 15:40 19,7 C 61 % 1013,2 hPa 0,0 mm 11,3 km/h (2 Bft) W 270 10 min 4 UV-I 675 W/m 29,0 km/h (5 Bft)
05.09.2011 15:50 19,8 C 60 % 1013,3 hPa 0,0 mm 9,7 km/h (2 Bft) W 270 10 min 4 UV-I 740 W/m 24,1 km/h (4 Bft)
05.09.2011 16:00 20,0 C 60 % 1013,2 hPa 0,0 mm 6,1 km/h (2 Bft) W 271 10 min 3 UV-I 487 W/m 16,1 km/h (3 Bft)
05.09.2011 16:10 19,8 C 61 % 1013,3 hPa 0,0 mm 8,0 km/h (2 Bft) W-SW 247 10 min 3 UV-I 631 W/m 24,1 km/h (4 Bft)
05.09.2011 16:20 19,3 C 63 % 1013,4 hPa 0,0 mm 6,4 km/h (2 Bft) W 270 0 min 2 UV-I 218 W/m 22,5 km/h (4 Bft)
05.09.2011 16:30 19,3 C 60 % 1013,4 hPa 0,0 mm 9,7 km/h (2 Bft) W 270 10 min 2 UV-I 687 W/m 20,9 km/h (4 Bft)
05.09.2011 16:40 19,9 C 60 % 1013,4 hPa 0,0 mm 4,8 km/h (1 Bft) W 270 10 min 3 UV-I 591 W/m 17,7 km/h (3 Bft)
05.09.2011 16:50 20,4 C 58 % 1013,2 hPa 0,0 mm 6,4 km/h (2 Bft) W 270 10 min 2 UV-I 570 W/m 20,9 km/h (4 Bft)
05.09.2011 17:00 20,2 C 61 % 1013,5 hPa 0,0 mm 4,8 km/h (1 Bft) W 270 10 min 2 UV-I 603 W/m 19,3 km/h (3 Bft)
05.09.2011 17:10 19,6 C 62 % 1013,6 hPa 0,0 mm 8,0 km/h (2 Bft) W 270 0 min 1 UV-I 163 W/m 20,9 km/h (4 Bft)
05.09.2011 17:20 19,1 C 64 % 1013,7 hPa 0,0 mm 4,8 km/h (1 Bft) W 270 10 min 1 UV-I 323 W/m 19,3 km/h (3 Bft)
05.09.2011 17:30 19,1 C 63 % 1014,0 hPa 0,0 mm 9,7 km/h (2 Bft) W 270 10 min 1 UV-I 381 W/m 25,7 km/h (4 Bft)
05.09.2011 17:40 18,9 C 62 % 1014,1 hPa 0,0 mm 8,0 km/h (2 Bft) W 270 10 min 1 UV-I 413 W/m 22,5 km/h (4 Bft)
05.09.2011 17:50 19,0 C 63 % 1014,1 hPa 0,0 mm 6,4 km/h (2 Bft) W 270 10 min 1 UV-I 404 W/m 19,3 km/h (3 Bft)
05.09.2011 18:00 19,4 C 62 % 1014,2 hPa 0,0 mm 6,4 km/h (2 Bft) W 270 10 min 1 UV-I 316 W/m 16,1 km/h (3 Bft)
05.09.2011 18:10 19,6 C 60 % 1014,3 hPa 0,0 mm 8,0 km/h (2 Bft) W-SW 247 10 min 1 UV-I 294 W/m 24,1 km/h (4 Bft)
05.09.2011 18:20 19,5 C 57 % 1014,3 hPa 0,0 mm 6,4 km/h (2 Bft) W 270 10 min 1 UV-I 285 W/m 22,5 km/h (4 Bft)
05.09.2011 18:30 19,6 C 54 % 1014,4 hPa 0,0 mm 8,0 km/h (2 Bft) W 270 10 min 1 UV-I 232 W/m 25,7 km/h (4 Bft)
05.09.2011 18:40 19,4 C 53 % 1014,3 hPa 0,0 mm 8,0 km/h (2 Bft) W-SW 247 10 min 1 UV-I 206 W/m 19,3 km/h (3 Bft)
05.09.2011 18:50 19,3 C 52 % 1014,5 hPa 0,0 mm 8,0 km/h (2 Bft) W 270 10 min 1 UV-I 178 W/m 22,5 km/h (4 Bft)
05.09.2011 19:00 19,1 C 52 % 1014,6 hPa 0,0 mm 6,4 km/h (2 Bft) W-SW 247 10 min 1 UV-I 148 W/m 19,3 km/h (3 Bft)
05.09.2011 19:10 18,7 C 52 % 1014,9 hPa 0,0 mm 8,0 km/h (2 Bft) W-SW 247 10 min 0 UV-I 111 W/m 22,5 km/h (4 Bft)
05.09.2011 19:20 18,2 C 54 % 1015,0 hPa 0,0 mm 4,8 km/h (1 Bft) W-SW 247 0 min 0 UV-I 21 W/m 16,1 km/h (3 Bft)
05.09.2011 19:30 17,8 C 55 % 1015,2 hPa 0,0 mm 3,2 km/h (1 Bft) W-SW 247 0 min 0 UV-I 18 W/m 16,1 km/h (3 Bft)
05.09.2011 19:40 17,7 C 56 % 1015,6 hPa 0,0 mm 4,8 km/h (1 Bft) W 270 0 min 0 UV-I 19 W/m 17,7 km/h (3 Bft)
05.09.2011 19:50 17,6 C 57 % 1015,7 hPa 0,0 mm 6,4 km/h (2 Bft) W 270 10 min 0 UV-I 16 W/m 22,5 km/h (4 Bft)
05.09.2011 20:00 17,6 C 59 % 1016,0 hPa 0,0 mm 4,8 km/h (1 Bft) W 270 0 min 0 UV-I 12 W/m 20,9 km/h (4 Bft)
05.09.2011 20:10 17,4 C 61 % 1016,2 hPa 0,0 mm 6,4 km/h (2 Bft) W 270 0 min 0 UV-I 0 W/m 17,7 km/h (3 Bft)
05.09.2011 20:20 17,2 C 65 % 1016,4 hPa 0,0 mm 4,8 km/h (1 Bft) W 270 0 min 0 UV-I 0 W/m 16,1 km/h (3 Bft)
05.09.2011 20:30 16,7 C 67 % 1016,5 hPa 0,0 mm 4,8 km/h (1 Bft) W-SW 247 0 min 0 UV-I 0 W/m 17,7 km/h (3 Bft)
05.09.2011 20:40 16,3 C 68 % 1016,8 hPa 0,0 mm 3,2 km/h (1 Bft) W-SW 247 0 min 0 UV-I 0 W/m 11,3 km/h (2 Bft)
05.09.2011 20:50 16,0 C 69 % 1016,9 hPa 0,0 mm 3,2 km/h (1 Bft) SW 225 0 min 0 UV-I 0 W/m 14,5 km/h (3 Bft)
05.09.2011 21:00 15,8 C 69 % 1017,1 hPa 0,0 mm 1,6 km/h (1 Bft) W-SW 247 0 min 0 UV-I 0 W/m 9,7 km/h (2 Bft)
05.09.2011 21:10 15,6 C 69 % 1017,1 hPa 0,0 mm 1,6 km/h (1 Bft) SW 225 0 min 0 UV-I 0 W/m 11,3 km/h (2 Bft)
05.09.2011 21:20 15,5 C 69 % 1017,3 hPa 0,0 mm 3,2 km/h (1 Bft) W 270 0 min 0 UV-I 0 W/m 11,3 km/h (2 Bft)
05.09.2011 21:30 15,4 C 69 % 1017,3 hPa 0,0 mm 1,6 km/h (1 Bft) S-SW 202 0 min 0 UV-I 0 W/m 6,4 km/h (2 Bft)
05.09.2011 21:40 15,4 C 69 % 1017,3 hPa 0,0 mm 0,0 km/h (0 Bft) SW 225 0 min 0 UV-I 0 W/m 6,4 km/h (2 Bft)
05.09.2011 21:50 15,4 C 69 % 1017,3 hPa 0,0 mm 0,0 km/h (0 Bft) SW 225 0 min 0 UV-I 0 W/m 6,4 km/h (2 Bft)
05.09.2011 22:00 15,4 C 69 % 1017,3 hPa 0,0 mm 0,0 km/h (0 Bft) SW 225 0 min 0 UV-I 0 W/m 4,8 km/h (1 Bft)
05.09.2011 22:10 15,1 C 69 % 1017,3 hPa 0,0 mm 0,0 km/h (0 Bft) SW 225 0 min 0 UV-I 0 W/m 3,2 km/h (1 Bft)
05.09.2011 22:20 14,9 C 70 % 1017,4 hPa 0,0 mm 0,0 km/h (0 Bft) SW 225 0 min 0 UV-I 0 W/m 1,6 km/h (1 Bft)
05.09.2011 22:30 14,7 C 71 % 1017,5 hPa 0,0 mm 0,0 km/h (0 Bft) SW 225 0 min 0 UV-I 0 W/m 3,2 km/h (1 Bft)
05.09.2011 22:40 14,4 C 71 % 1017,6 hPa 0,0 mm 0,0 km/h (0 Bft) SW 225 0 min 0 UV-I 0 W/m 1,6 km/h (1 Bft)
05.09.2011 22:50 14,3 C 72 % 1017,7 hPa 0,0 mm 0,0 km/h (0 Bft) SW 225 0 min 0 UV-I 0 W/m 3,2 km/h (1 Bft)
05.09.2011 23:00 14,2 C 72 % 1017,7 hPa 0,0 mm 0,0 km/h (0 Bft) SW 225 0 min 0 UV-I 0 W/m 3,2 km/h (1 Bft)
05.09.2011 23:10 14,1 C 73 % 1017,8 hPa 0,0 mm 0,0 km/h (0 Bft) SW 225 0 min 0 UV-I 0 W/m 6,4 km/h (2 Bft)
05.09.2011 23:20 14,1 C 73 % 1017,9 hPa 0,0 mm 0,0 km/h (0 Bft) S-SW 202 0 min 0 UV-I 0 W/m 6,4 km/h (2 Bft)
05.09.2011 23:30 14,0 C 74 % 1017,9 hPa 0,0 mm 1,6 km/h (1 Bft) S-SW 202 0 min 0 UV-I 0 W/m 9,7 km/h (2 Bft)
05.09.2011 23:40 14,1 C 74 % 1017,9 hPa 0,0 mm 1,6 km/h (1 Bft) S-SW 202 0 min 0 UV-I 0 W/m 9,7 km/h (2 Bft)
05.09.2011 23:50 14,1 C 74 % 1017,9 hPa 0,0 mm 1,6 km/h (1 Bft) SW 225 0 min 0 UV-I 0 W/m 11,3 km/h (2 Bft)
_ Min-Zeit 23:30 18:50 02:50 - 00:00 - - - - - 00:00
Minimum _ 14,0 C 52 % 1008,3 hPa - 0,0 km/h (0 Bft) - - - - - 0,0 km/h (0 Bft)
_ Max-Zeit 13:00 02:50 23:20 00:00 07:40 - - 09:30 12:40 12:50 08:30
Maximum _ 20,7 C 95 % 1017,9 hPa 0,0 mm 11,3 km/h
W (2 Bft)
- - 10 min 6 UV-I 953 W/m 29,0 km/h
W (5 Bft)
Durchschnitt _ 17,4 C 75 % 1012,2 hPa #0,0 mm 4,2 km/h (1 Bft) W - #8:20 h 3 UV-I 406 W/m 13,5 km/h (3 Bft)